Time;durP1;ratioP1;P1;durP2;ratioP2;P2;SDS_P1;SDS_P2;PMS_P1;PMS_P2;Temp;Humidity;BMP_temperature;BMP_pressure;BME280_temperature;BME280_humidity;BME280_pressure;Samples;Min_cycle;Max_cycle;Signal;HPM_P1;HPM_P2
2022/05/04 00:00:23;;;;;;;1.50;0.60;;;9.90;99.90;;;;;;20668162;28;20089;-82
2022/05/04 00:10:24;;;;;;;1.77;0.55;;;9.90;99.90;;;;;;20667068;28;20050;-84
2022/05/04 00:20:25;;;;;;;0.95;0.45;;;9.80;99.90;;;;;;20650089;28;20061;-82
2022/05/04 00:30:26;;;;;;;4.88;1.13;;;9.80;99.90;;;;;;20665422;28;20165;-82
2022/05/04 00:40:27;;;;;;;4.13;0.38;;;9.60;99.90;;;;;;20681187;28;20081;-83
2022/05/04 00:50:28;;;;;;;1.08;0.52;;;9.50;99.90;;;;;;20665336;28;20046;-82
2022/05/04 01:00:30;;;;;;;2.97;0.98;;;9.40;99.90;;;;;;20665702;28;20030;-82
2022/05/04 01:10:31;;;;;;;1.63;0.75;;;9.40;99.90;;;;;;20669862;28;20062;-82
2022/05/04 01:20:32;;;;;;;4.40;0.60;;;9.30;99.90;;;;;;20635633;28;20565;-80
2022/05/04 01:30:34;;;;;;;4.00;0.80;;;9.30;99.90;;;;;;20650047;28;20129;-80
2022/05/04 01:40:35;;;;;;;2.72;0.68;;;9.30;99.90;;;;;;20651639;28;20081;-82
2022/05/04 01:50:36;;;;;;;3.13;0.73;;;9.10;99.90;;;;;;20636993;28;20058;-82
2022/05/04 02:00:38;;;;;;;2.00;0.70;;;9.10;99.90;;;;;;20652807;28;20058;-82
2022/05/04 02:10:41;;;;;;;2.67;0.73;;;9.20;99.90;;;;;;20650999;28;20061;-80
2022/05/04 02:20:43;;;;;;;1.35;0.55;;;9.10;99.90;;;;;;20671136;28;20509;-82
2022/05/04 02:30:44;;;;;;;1.48;0.80;;;9.00;99.90;;;;;;20657600;28;20085;-80
2022/05/04 02:40:46;;;;;;;2.13;0.80;;;8.80;99.90;;;;;;20661561;28;20753;-80
2022/05/04 02:50:47;;;;;;;2.60;0.43;;;8.60;99.90;;;;;;20668282;28;20099;-80
2022/05/04 03:00:48;;;;;;;2.17;1.00;;;8.50;99.90;;;;;;20667420;28;20042;-80
2022/05/04 03:21:08;;;;;;;3.20;0.80;;;7.90;99.90;;;;;;20680973;28;20428;-80
2022/05/04 03:31:10;;;;;;;1.45;0.55;;;7.70;99.90;;;;;;20662350;28;20042;-80
2022/05/04 03:41:11;;;;;;;1.65;0.70;;;7.50;99.90;;;;;;20659336;28;20074;-80
2022/05/04 03:51:19;;;;;;;2.33;0.70;;;7.50;99.90;;;;;;20661643;28;20073;-80
2022/05/04 04:01:20;;;;;;;1.67;0.90;;;7.40;99.90;;;;;;20645570;28;20041;-80
2022/05/04 04:11:21;;;;;;;1.63;0.82;;;7.50;99.90;;;;;;20660095;28;20066;-80
2022/05/04 04:31:46;;;;;;;1.42;0.65;;;7.30;99.90;;;;;;20644254;28;20052;-80
2022/05/04 04:41:47;;;;;;;1.98;0.88;;;7.10;99.90;;;;;;20625247;28;20053;-80
2022/05/04 04:51:48;;;;;;;13.07;1.20;;;7.10;99.90;;;;;;20611186;28;20037;-80
2022/05/04 05:01:49;;;;;;;2.45;0.90;;;7.10;99.90;;;;;;20626420;28;20035;-80
2022/05/04 05:11:50;;;;;;;2.38;0.70;;;7.00;99.90;;;;;;20608685;28;20045;-80
2022/05/04 05:21:51;;;;;;;2.53;0.60;;;7.00;99.90;;;;;;20609209;28;20036;-80
2022/05/04 05:31:52;;;;;;;6.75;0.68;;;7.30;99.90;;;;;;20641992;28;20038;-80
2022/05/04 05:41:54;;;;;;;2.33;0.95;;;7.60;99.90;;;;;;20622074;28;20068;-80
2022/05/04 05:51:56;;;;;;;4.32;1.33;;;7.90;99.90;;;;;;20607014;28;20164;-80
2022/05/04 06:01:58;;;;;;;2.47;0.88;;;8.40;99.90;;;;;;20622350;28;20038;-80
2022/05/04 06:11:59;;;;;;;3.88;0.80;;;9.00;99.90;;;;;;20621112;28;20038;-81
2022/05/04 06:22:00;;;;;;;4.03;1.02;;;9.00;99.90;;;;;;20635596;28;20026;-81
2022/05/04 06:42:21;;;;;;;1.98;1.10;;;9.80;99.90;;;;;;20652587;28;20317;-79
2022/05/04 06:52:24;;;;;;;2.03;0.93;;;10.00;99.90;;;;;;20634669;28;20046;-79
2022/05/04 07:02:26;;;;;;;2.80;1.13;;;9.80;99.90;;;;;;20651568;28;20443;-79
2022/05/04 07:12:28;;;;;;;1.55;0.68;;;9.80;99.90;;;;;;20648576;28;20042;-80
2022/05/04 07:22:29;;;;;;;3.58;0.90;;;10.00;99.90;;;;;;20631588;28;20508;-79
2022/05/04 07:32:30;;;;;;;2.65;0.88;;;10.40;99.90;;;;;;20647241;28;20440;-80
2022/05/04 07:42:31;;;;;;;2.63;0.90;;;10.00;99.90;;;;;;20612901;28;20069;-80
2022/05/04 07:52:33;;;;;;;3.25;1.25;;;10.00;99.90;;;;;;20629377;28;20120;-79
2022/05/04 08:12:58;;;;;;;2.85;1.30;;;10.40;99.90;;;;;;20628156;28;20112;-80
2022/05/04 08:22:59;;;;;;;3.72;1.17;;;10.70;99.90;;;;;;20639990;28;20022;-79
2022/05/04 08:33:00;;;;;;;5.18;0.98;;;11.40;99.90;;;;;;20642980;28;20482;-80
2022/05/04 08:43:05;;;;;;;3.92;1.55;;;11.30;99.90;;;;;;20624162;28;20544;-79
2022/05/04 08:53:07;;;;;;;4.50;1.20;;;11.50;99.90;;;;;;20640657;28;20057;-79
2022/05/04 09:03:09;;;;;;;5.82;1.50;;;11.60;99.90;;;;;;20622226;28;21120;-80
2022/05/04 09:13:10;;;;;;;4.05;1.50;;;11.70;99.90;;;;;;20620678;28;20408;-80
2022/05/04 09:23:12;;;;;;;4.25;1.25;;;12.30;99.90;;;;;;20639462;28;20030;-79
2022/05/04 09:33:21;;;;;;;2.03;0.93;;;12.60;99.90;;;;;;20620719;28;20038;-80
2022/05/04 09:53:43;;;;;;;2.50;1.20;;;12.80;99.90;;;;;;20649968;28;20423;-79
2022/05/04 10:03:50;;;;;;;3.65;1.33;;;12.90;99.90;;;;;;20637616;28;20030;-79
2022/05/04 10:13:55;;;;;;;6.07;2.20;;;13.40;99.90;;;;;;20634926;28;20034;-79
2022/05/04 10:24:01;;;;;;;6.05;1.27;;;13.60;99.90;;;;;;20633457;28;20034;-79
2022/05/04 10:34:06;;;;;;;2.85;1.10;;;14.00;99.90;;;;;;20632556;28;20034;-79
2022/05/04 10:44:11;;;;;;;3.28;1.50;;;14.20;99.90;;;;;;20647477;28;20066;-79
2022/05/04 10:54:18;;;;;;;6.07;1.83;;;14.20;99.90;;;;;;20647785;28;20034;-79
2022/05/04 11:04:23;;;;;;;4.70;1.53;;;14.90;99.90;;;;;;20649252;28;20038;-79
2022/05/04 11:14:26;;;;;;;28.55;3.13;;;15.10;99.90;;;;;;20615062;28;20053;-79
2022/05/04 11:24:28;;;;;;;3.83;1.60;;;15.80;99.90;;;;;;20629167;28;20057;-80
2022/05/04 11:34:37;;;;;;;2.03;0.77;;;16.10;99.90;;;;;;20631798;28;20030;-79
2022/05/04 11:44:41;;;;;;;2.28;1.02;;;16.20;99.90;;;;;;20485885;28;20043;-80
2022/05/04 11:54:44;;;;;;;3.65;1.15;;;16.40;99.30;;;;;;20485981;28;20074;-80
2022/05/04 12:04:47;;;;;;;2.13;1.00;;;15.60;99.40;;;;;;20485414;28;20027;-80
2022/05/04 12:14:52;;;;;;;2.05;0.75;;;16.10;99.90;;;;;;20498415;28;20051;-80
2022/05/04 12:24:53;;;;;;;5.22;1.30;;;17.00;98.60;;;;;;20482513;28;20684;-80
2022/05/04 12:34:55;;;;;;;2.78;1.00;;;17.00;97.90;;;;;;20488020;28;20421;-80
2022/05/04 12:44:59;;;;;;;2.58;1.02;;;17.10;97.90;;;;;;20623859;28;20042;-80
2022/05/04 12:55:00;;;;;;;4.38;1.00;;;16.10;99.90;;;;;;20605776;28;20049;-79
2022/05/04 13:05:02;;;;;;;4.50;1.73;;;16.20;99.90;;;;;;20623332;28;20045;-79
2022/05/04 13:15:04;;;;;;;3.22;1.15;;;16.30;99.90;;;;;;20622822;28;20033;-79
2022/05/04 13:25:05;;;;;;;4.03;1.40;;;16.40;99.90;;;;;;20621285;28;20034;-80
2022/05/04 13:35:07;;;;;;;4.75;1.00;;;15.90;99.90;;;;;;20621309;28;20462;-80
2022/05/04 13:45:11;;;;;;;3.65;1.42;;;16.20;99.90;;;;;;20636474;28;20034;-80
2022/05/04 13:55:13;;;;;;;5.80;1.63;;;16.50;99.90;;;;;;20640078;28;20514;-80
2022/05/04 14:05:13;;;;;;;3.97;1.30;;;16.50;99.90;;;;;;20622891;28;20034;-80
2022/05/04 14:15:15;;;;;;;3.65;1.17;;;17.00;99.90;;;;;;20619834;28;20035;-80
2022/05/04 14:25:16;;;;;;;2.55;0.90;;;17.20;99.90;;;;;;20620348;28;20038;-80
2022/05/04 14:35:17;;;;;;;2.92;1.45;;;17.30;99.90;;;;;;20642215;28;20150;-79
2022/05/04 14:45:18;;;;;;;3.15;1.13;;;17.50;99.90;;;;;;20634288;28;20088;-79
2022/05/04 14:55:20;;;;;;;2.08;0.95;;;17.30;99.90;;;;;;20632987;28;20046;-79
2022/05/04 15:05:21;;;;;;;6.10;1.00;;;17.20;99.90;;;;;;20633760;28;20517;-79
2022/05/04 15:15:23;;;;;;;2.38;0.88;;;17.00;99.90;;;;;;20616827;28;20042;-79
2022/05/04 15:25:24;;;;;;;2.25;0.75;;;17.00;99.20;;;;;;20633124;28;20367;-80
2022/05/04 15:35:25;;;;;;;3.55;1.40;;;17.10;99.80;;;;;;20650354;28;20054;-80
2022/05/04 15:45:26;;;;;;;3.72;0.90;;;16.50;99.80;;;;;;20630747;28;20057;-79
2022/05/04 15:55:27;;;;;;;9.93;1.23;;;16.30;99.90;;;;;;20630483;28;20046;-79
2022/05/04 16:05:28;;;;;;;4.05;1.25;;;16.50;99.90;;;;;;20647229;28;20461;-79
2022/05/04 16:15:29;;;;;;;1.95;1.00;;;16.70;99.90;;;;;;20611156;28;20043;-79
2022/05/04 16:25:31;;;;;;;3.65;1.15;;;16.60;99.90;;;;;;20628402;28;20517;-79
2022/05/04 16:35:32;;;;;;;1.83;0.85;;;16.50;99.90;;;;;;20626291;28;20045;-79
2022/05/04 16:45:33;;;;;;;8.25;1.35;;;16.30;99.90;;;;;;20627221;28;20031;-79
2022/05/04 16:55:34;;;;;;;3.25;1.13;;;16.00;99.90;;;;;;20621679;28;20514;-79
2022/05/04 17:05:35;;;;;;;2.45;0.88;;;16.00;99.90;;;;;;20642659;28;20421;-80
2022/05/04 17:15:36;;;;;;;3.20;1.10;;;15.70;99.90;;;;;;20609816;28;20560;-80
2022/05/04 17:25:37;;;;;;;3.53;1.00;;;15.30;99.90;;;;;;20623778;28;20022;-80
2022/05/04 17:46:05;;;;;;;2.47;0.95;;;14.70;99.90;;;;;;20623590;28;20118;-80
2022/05/04 17:56:07;;;;;;;2.42;1.25;;;14.60;99.90;;;;;;20601848;28;20111;-80
2022/05/04 18:06:11;;;;;;;3.90;0.90;;;14.40;99.90;;;;;;20636241;28;20051;-79
2022/05/04 18:16:12;;;;;;;7.85;1.13;;;14.00;99.90;;;;;;20654029;28;20048;-80
2022/05/04 18:26:13;;;;;;;3.58;1.73;;;14.00;99.90;;;;;;20654594;28;20034;-79
2022/05/04 18:36:29;;;;;;;7.72;1.58;;;13.90;99.90;;;;;;20653948;28;20039;-80
2022/05/04 18:46:30;;;;;;;2.65;0.85;;;13.90;99.90;;;;;;20654410;28;20462;-79
2022/05/04 18:56:31;;;;;;;2.17;0.82;;;13.70;99.90;;;;;;20653662;28;20042;-80
2022/05/04 19:06:33;;;;;;;1.83;0.85;;;13.40;99.90;;;;;;20657746;28;20117;-80
2022/05/04 19:16:34;;;;;;;2.97;0.90;;;13.40;99.90;;;;;;20639518;28;20570;-80
2022/05/04 19:26:36;;;;;;;1.77;0.75;;;13.30;99.90;;;;;;20648792;28;20026;-79
2022/05/04 19:36:37;;;;;;;1.17;0.60;;;13.20;99.90;;;;;;20605539;28;20034;-80
2022/05/04 19:46:38;;;;;;;1.35;0.60;;;12.80;99.90;;;;;;20630225;28;20344;-80
2022/05/04 19:56:40;;;;;;;1.70;0.98;;;12.60;99.90;;;;;;20629398;28;20398;-79
2022/05/04 20:06:42;;;;;;;2.50;0.90;;;12.40;99.90;;;;;;20666225;28;20026;-80
2022/05/04 20:16:44;;;;;;;1.70;0.65;;;12.30;99.90;;;;;;20649615;28;20030;-80
2022/05/04 20:26:45;;;;;;;1.70;0.70;;;12.30;99.90;;;;;;20649225;28;20145;-80
2022/05/04 20:36:46;;;;;;;2.58;0.88;;;12.20;99.90;;;;;;20647611;28;20145;-80
2022/05/04 20:46:47;;;;;;;2.95;0.77;;;11.90;99.90;;;;;;20637940;28;20113;-80
2022/05/04 20:56:48;;;;;;;3.67;0.95;;;11.90;99.90;;;;;;20667182;28;20133;-79
2022/05/04 21:06:51;;;;;;;2.33;0.80;;;11.80;99.90;;;;;;20663207;28;20113;-80
2022/05/04 21:16:52;;;;;;;1.05;0.50;;;11.60;99.90;;;;;;20629359;28;20347;-79
2022/05/04 21:26:53;;;;;;;1.92;0.77;;;11.70;99.90;;;;;;20660736;28;20125;-80
2022/05/04 21:36:55;;;;;;;2.80;1.75;;;11.50;99.90;;;;;;20656855;28;20043;-80
2022/05/04 21:46:58;;;;;;;5.18;1.73;;;11.40;99.90;;;;;;20627681;28;20086;-80
2022/05/04 21:57:00;;;;;;;4.25;1.25;;;11.30;99.90;;;;;;20625948;28;20085;-79
2022/05/04 22:07:01;;;;;;;1.40;0.52;;;11.30;99.90;;;;;;20651164;28;20035;-80
2022/05/04 22:17:02;;;;;;;4.13;1.20;;;11.20;99.90;;;;;;20621806;28;20049;-80
2022/05/04 22:27:04;;;;;;;2.22;1.15;;;11.10;99.90;;;;;;20638314;28;20037;-80
2022/05/04 22:37:05;;;;;;;3.40;1.60;;;11.00;99.90;;;;;;20653116;28;20069;-80
2022/05/04 22:47:07;;;;;;;3.10;1.27;;;11.00;99.90;;;;;;20638071;28;20190;-80
2022/05/04 22:57:09;;;;;;;5.80;1.10;;;10.80;99.90;;;;;;20642011;28;20386;-79
2022/05/04 23:07:12;;;;;;;2.88;1.00;;;10.80;99.90;;;;;;20651021;28;20045;-79
2022/05/04 23:17:13;;;;;;;3.67;1.33;;;10.60;99.90;;;;;;20668389;28;20042;-79
2022/05/04 23:27:15;;;;;;;2.88;1.27;;;10.50;99.90;;;;;;20651388;28;20547;-80
2022/05/04 23:37:30;;;;;;;3.70;1.40;;;10.40;99.90;;;;;;20633329;28;20042;-81
2022/05/04 23:47:32;;;;;;;4.10;1.48;;;10.30;99.90;;;;;;20666124;28;20037;-79
2022/05/04 23:57:33;;;;;;;2.13;0.95;;;10.20;99.90;;;;;;20643003;28;20141;-82
